Time;durP1;ratioP1;P1;durP2;ratioP2;P2;SDS_P1;SDS_P2;PMS_P1;PMS_P2;Temp;Humidity;BMP_temperature;BMP_pressure;BME280_temperature;BME280_humidity;BME280_pressure;Samples;Min_cycle;Max_cycle;Signal;HPM_P1;HPM_P2
2023/05/31 00:00:49;;;;;;;31.50;14.15;;;;;;;;;;6187012;23;20012;-80
2023/05/31 00:03:15;;;;;;;32.25;14.85;;;;;;;;;;6213893;23;20360;-80
2023/05/31 00:05:40;;;;;;;33.60;14.57;;;;;;;;;;6211834;23;20408;-80
2023/05/31 00:08:06;;;;;;;29.80;14.75;;;;;;;;;;6212199;23;20102;-80
2023/05/31 00:10:31;;;;;;;27.95;14.80;;;;;;;;;;6212115;23;20007;-79
2023/05/31 00:12:57;;;;;;;30.35;15.20;;;;;;;;;;6187165;23;20001;-79
2023/05/31 00:15:22;;;;;;;33.35;15.07;;;;;;;;;;6211552;23;20004;-80
2023/05/31 00:17:48;;;;;;;28.52;14.77;;;;;;;;;;6211746;23;20005;-79
2023/05/31 00:20:13;;;;;;;27.42;15.32;;;;;;;;;;6211251;23;20001;-80
2023/05/31 00:22:38;;;;;;;30.63;14.80;;;;;;;;;;6213506;23;20079;-81
2023/05/31 00:25:04;;;;;;;29.00;14.63;;;;;;;;;;6212250;23;20005;-80
2023/05/31 00:27:30;;;;;;;32.15;15.48;;;;;;;;;;6211948;23;20075;-80
2023/05/31 00:29:55;;;;;;;31.55;15.77;;;;;;;;;;6212036;23;20020;-79
2023/05/31 00:32:21;;;;;;;33.08;15.50;;;;;;;;;;6186806;23;20000;-79
2023/05/31 00:34:46;;;;;;;33.28;15.07;;;;;;;;;;6186871;23;20063;-79
2023/05/31 00:37:11;;;;;;;26.20;14.45;;;;;;;;;;6212024;23;20076;-80
2023/05/31 00:39:37;;;;;;;32.63;14.95;;;;;;;;;;6186855;23;20032;-80
2023/05/31 00:42:02;;;;;;;31.55;15.55;;;;;;;;;;6162766;23;20413;-80
2023/05/31 00:44:28;;;;;;;34.25;15.00;;;;;;;;;;6163949;23;20059;-80
2023/05/31 00:46:53;;;;;;;34.53;14.50;;;;;;;;;;6213817;23;20085;-80
2023/05/31 00:49:19;;;;;;;25.92;15.15;;;;;;;;;;6213685;23;20008;-80
2023/05/31 00:51:45;;;;;;;33.35;15.32;;;;;;;;;;6189036;23;20005;-79
2023/05/31 00:54:11;;;;;;;27.90;15.43;;;;;;;;;;6189048;23;20004;-80
2023/05/31 00:56:36;;;;;;;35.92;16.58;;;;;;;;;;6213663;23;20066;-79
2023/05/31 00:59:02;;;;;;;28.17;14.85;;;;;;;;;;6213848;23;20083;-79
2023/05/31 01:01:32;;;;;;;27.98;14.95;;;;;;;;;;6188913;23;20014;-79
2023/05/31 01:03:58;;;;;;;27.92;14.70;;;;;;;;;;6213612;23;20005;-80
2023/05/31 01:06:23;;;;;;;28.08;15.00;;;;;;;;;;6188779;23;20004;-80
2023/05/31 01:08:50;;;;;;;31.95;15.57;;;;;;;;;;6215609;23;20489;-81
2023/05/31 01:11:40;;;;;;;38.53;15.57;;;;;;;;;;6189256;23;20087;-79
2023/05/31 01:14:24;;;;;;;;;;;;;;;;;;6216274;23;19997;-80
2023/05/31 01:16:54;;;;;;;32.33;14.65;;;;;;;;;;6213288;23;19908;-79
2023/05/31 01:19:47;;;;;;;31.38;14.80;;;;;;;;;;6163801;23;20001;-79
2023/05/31 01:22:23;;;;;;;34.33;14.43;;;;;;;;;;6190815;23;20012;-79
2023/05/31 01:24:52;;;;;;;35.60;14.52;;;;;;;;;;6190565;23;20091;-79
2023/05/31 01:27:18;;;;;;;29.40;14.30;;;;;;;;;;6215764;23;20095;-78
2023/05/31 01:29:43;;;;;;;37.95;15.00;;;;;;;;;;6188585;23;20012;-79
2023/05/31 01:32:09;;;;;;;37.95;15.15;;;;;;;;;;6213758;23;20004;-79
2023/05/31 01:34:35;;;;;;;31.08;13.80;;;;;;;;;;6188484;23;20364;-78
2023/05/31 01:37:01;;;;;;;31.50;14.30;;;;;;;;;;6188676;23;20004;-79
2023/05/31 01:39:26;;;;;;;28.98;13.52;;;;;;;;;;6213835;23;20416;-79
2023/05/31 01:41:52;;;;;;;33.38;14.52;;;;;;;;;;6214801;23;20478;-79
2023/05/31 01:44:18;;;;;;;29.42;14.18;;;;;;;;;;6188683;23;20001;-79
2023/05/31 01:46:43;;;;;;;30.95;14.02;;;;;;;;;;6213148;23;20043;-79
2023/05/31 01:49:09;;;;;;;31.88;14.57;;;;;;;;;;6188284;23;20004;-79
2023/05/31 01:51:36;;;;;;;30.83;14.88;;;;;;;;;;6213328;23;20372;-78
2023/05/31 01:54:02;;;;;;;31.73;15.27;;;;;;;;;;6188845;23;20007;-78
2023/05/31 01:56:28;;;;;;;28.02;15.13;;;;;;;;;;6188361;23;20008;-79
2023/05/31 01:58:53;;;;;;;30.83;15.68;;;;;;;;;;6188633;23;20063;-79
2023/05/31 02:01:19;;;;;;;24.85;14.02;;;;;;;;;;6163347;23;20008;-79
2023/05/31 02:03:44;;;;;;;33.33;14.90;;;;;;;;;;6213289;23;20000;-79
2023/05/31 02:06:13;;;;;;;38.85;15.43;;;;;;;;;;6188284;23;20083;-78
2023/05/31 02:08:38;;;;;;;32.55;15.98;;;;;;;;;;6189098;23;20034;-78
2023/05/31 02:11:04;;;;;;;30.08;14.68;;;;;;;;;;6214809;23;20005;-78
2023/05/31 02:13:30;;;;;;;31.83;15.45;;;;;;;;;;6213469;23;20026;-78
2023/05/31 02:15:55;;;;;;;26.98;14.60;;;;;;;;;;6187715;23;20008;-79
2023/05/31 02:18:21;;;;;;;28.42;15.30;;;;;;;;;;6213076;23;19992;-78
2023/05/31 02:20:47;;;;;;;27.08;15.50;;;;;;;;;;6210459;23;20001;-78
2023/05/31 02:23:13;;;;;;;33.83;14.73;;;;;;;;;;6215087;23;20004;-78
2023/05/31 02:25:38;;;;;;;40.28;15.02;;;;;;;;;;6214574;23;20358;-80
2023/05/31 02:28:03;;;;;;;31.42;15.23;;;;;;;;;;6188048;23;20409;-78
2023/05/31 02:30:30;;;;;;;29.92;14.55;;;;;;;;;;6187793;23;20015;-78
2023/05/31 02:32:55;;;;;;;34.33;15.98;;;;;;;;;;6188352;23;20026;-79
2023/05/31 02:35:21;;;;;;;36.15;15.38;;;;;;;;;;6212897;23;20032;-79
2023/05/31 02:37:49;;;;;;;32.58;15.10;;;;;;;;;;6214917;23;19992;-78
2023/05/31 02:40:15;;;;;;;35.58;15.98;;;;;;;;;;6188465;23;20009;-78
2023/05/31 02:42:41;;;;;;;36.50;15.60;;;;;;;;;;6214098;23;20001;-78
2023/05/31 02:45:08;;;;;;;31.70;15.18;;;;;;;;;;6212507;23;20087;-79
2023/05/31 02:47:33;;;;;;;37.30;16.15;;;;;;;;;;6212926;23;20007;-80
2023/05/31 02:49:59;;;;;;;38.90;15.77;;;;;;;;;;6162939;23;20001;-79
2023/05/31 02:52:26;;;;;;;32.58;16.15;;;;;;;;;;6213346;23;20078;-80
2023/05/31 02:54:51;;;;;;;29.55;15.35;;;;;;;;;;6187700;23;20004;-80
2023/05/31 02:57:17;;;;;;;33.80;16.05;;;;;;;;;;6187548;23;20162;-80
2023/05/31 02:59:43;;;;;;;38.05;15.35;;;;;;;;;;6187632;23;20008;-80
2023/05/31 03:02:08;;;;;;;31.42;14.63;;;;;;;;;;6187721;23;19996;-80
2023/05/31 03:04:35;;;;;;;34.10;16.48;;;;;;;;;;6187249;23;20055;-79
2023/05/31 03:07:01;;;;;;;31.20;15.73;;;;;;;;;;6187975;23;20004;-80
2023/05/31 03:09:26;;;;;;;31.20;15.35;;;;;;;;;;6212712;23;20112;-80
2023/05/31 03:11:51;;;;;;;32.42;14.85;;;;;;;;;;6214051;23;20008;-79
2023/05/31 03:14:17;;;;;;;40.97;14.88;;;;;;;;;;6212136;23;20035;-80
2023/05/31 03:16:43;;;;;;;27.90;14.52;;;;;;;;;;6212697;23;20127;-79
2023/05/31 03:19:09;;;;;;;34.33;14.75;;;;;;;;;;6187541;23;20091;-79
2023/05/31 03:21:35;;;;;;;36.65;15.15;;;;;;;;;;6213655;23;20005;-80
2023/05/31 03:24:01;;;;;;;36.00;14.73;;;;;;;;;;6212323;23;20443;-78
2023/05/31 03:26:26;;;;;;;36.85;14.65;;;;;;;;;;6212326;23;20005;-78
2023/05/31 03:28:52;;;;;;;24.85;14.18;;;;;;;;;;6212249;23;20009;-80
2023/05/31 03:31:18;;;;;;;40.47;14.52;;;;;;;;;;6187157;23;20098;-79
2023/05/31 03:33:44;;;;;;;27.42;13.93;;;;;;;;;;6212400;23;20001;-78
2023/05/31 03:36:10;;;;;;;34.15;14.95;;;;;;;;;;6187589;23;20011;-79
2023/05/31 03:38:35;;;;;;;31.88;13.00;;;;;;;;;;6212126;23;20004;-80
2023/05/31 03:41:00;;;;;;;27.98;13.13;;;;;;;;;;6212140;23;20008;-80
2023/05/31 03:43:26;;;;;;;33.33;13.50;;;;;;;;;;6162296;23;20011;-80
2023/05/31 03:45:51;;;;;;;24.88;13.65;;;;;;;;;;6187446;23;20372;-79
2023/05/31 03:48:17;;;;;;;27.17;12.93;;;;;;;;;;6187175;23;20467;-79
2023/05/31 03:50:43;;;;;;;25.38;12.73;;;;;;;;;;6213050;23;20005;-81
2023/05/31 03:53:09;;;;;;;27.25;13.23;;;;;;;;;;6187295;23;20001;-80
2023/05/31 03:55:34;;;;;;;25.90;13.00;;;;;;;;;;6213791;23;20039;-81
2023/05/31 03:58:00;;;;;;;23.58;12.57;;;;;;;;;;6211833;23;20008;-79
2023/05/31 04:00:26;;;;;;;24.27;12.30;;;;;;;;;;6213748;23;20001;-79
2023/05/31 04:02:52;;;;;;;26.13;11.52;;;;;;;;;;6213388;23;20329;-80
2023/05/31 04:05:17;;;;;;;24.45;12.38;;;;;;;;;;6162170;23;20030;-80
2023/05/31 04:07:42;;;;;;;33.00;13.23;;;;;;;;;;6212418;23;20012;-79
2023/05/31 04:10:08;;;;;;;26.02;11.95;;;;;;;;;;6212156;23;20004;-81
2023/05/31 04:12:34;;;;;;;30.60;12.75;;;;;;;;;;6211677;23;20347;-78
2023/05/31 04:14:59;;;;;;;25.20;12.18;;;;;;;;;;6211991;23;20396;-79
2023/05/31 04:17:25;;;;;;;23.83;12.07;;;;;;;;;;6186658;23;20015;-79
2023/05/31 04:19:51;;;;;;;27.50;11.95;;;;;;;;;;6162260;23;20011;-78
2023/05/31 04:22:16;;;;;;;31.98;12.00;;;;;;;;;;6211930;23;20143;-78
2023/05/31 04:24:42;;;;;;;33.47;12.90;;;;;;;;;;6211722;23;20032;-77
2023/05/31 04:27:07;;;;;;;27.05;11.30;;;;;;;;;;6213249;23;20065;-85
2023/05/31 04:29:32;;;;;;;27.90;12.77;;;;;;;;;;6212065;23;20001;-84
2023/05/31 04:31:58;;;;;;;27.85;12.27;;;;;;;;;;6211382;23;20035;-80
2023/05/31 04:34:26;;;;;;;27.38;11.70;;;;;;;;;;6186946;23;20432;-82
2023/05/31 04:36:52;;;;;;;24.55;12.25;;;;;;;;;;6210870;23;20008;-82
2023/05/31 04:39:19;;;;;;;28.85;12.05;;;;;;;;;;6211907;23;19997;-81
2023/05/31 04:41:45;;;;;;;28.98;12.15;;;;;;;;;;6210799;23;20013;-79
2023/05/31 04:44:11;;;;;;;26.15;12.35;;;;;;;;;;6157047;23;20399;-82
2023/05/31 04:46:36;;;;;;;27.85;12.32;;;;;;;;;;6185893;23;20008;-81
2023/05/31 04:49:04;;;;;;;34.53;12.18;;;;;;;;;;6159151;23;20491;-82
2023/05/31 04:51:31;;;;;;;24.73;11.63;;;;;;;;;;6161118;23;20030;-81
2023/05/31 04:53:59;;;;;;;24.73;11.60;;;;;;;;;;6168143;23;20075;-82
2023/05/31 04:56:25;;;;;;;22.30;10.82;;;;;;;;;;6170285;23;20035;-83
2023/05/31 04:58:51;;;;;;;25.73;10.45;;;;;;;;;;6169246;23;20687;-81
2023/05/31 05:01:17;;;;;;;19.60;11.18;;;;;;;;;;6221295;23;20004;-81
2023/05/31 05:03:43;;;;;;;22.30;11.65;;;;;;;;;;6223141;23;20005;-80
2023/05/31 05:06:18;;;;;;;31.20;11.73;;;;;;;;;;6219601;23;20321;-81
2023/05/31 05:08:44;;;;;;;24.25;10.93;;;;;;;;;;6223812;23;20009;-81
2023/05/31 05:11:10;;;;;;;26.10;12.15;;;;;;;;;;6220331;23;20460;-80
2023/05/31 05:13:35;;;;;;;23.83;11.32;;;;;;;;;;6219794;23;20071;-81
2023/05/31 05:16:02;;;;;;;33.15;12.60;;;;;;;;;;6220756;23;20008;-82
2023/05/31 05:18:28;;;;;;;29.58;13.15;;;;;;;;;;6218369;23;20001;-82
2023/05/31 05:20:54;;;;;;;30.42;12.55;;;;;;;;;;6220184;23;20015;-81
2023/05/31 05:23:19;;;;;;;30.70;13.00;;;;;;;;;;6172110;23;20011;-82
2023/05/31 05:25:45;;;;;;;26.48;11.77;;;;;;;;;;6171121;23;20428;-82
2023/05/31 05:28:10;;;;;;;25.67;11.82;;;;;;;;;;6223450;23;20004;-83
2023/05/31 05:30:36;;;;;;;23.88;11.32;;;;;;;;;;6223118;23;20011;-81
2023/05/31 05:33:01;;;;;;;26.35;12.20;;;;;;;;;;6223246;23;20016;-82
2023/05/31 05:35:28;;;;;;;21.20;11.63;;;;;;;;;;6225255;23;20007;-81
2023/05/31 05:37:54;;;;;;;21.20;10.73;;;;;;;;;;6225124;23;20486;-82
2023/05/31 05:40:28;;;;;;;28.52;10.82;;;;;;;;;;6233859;23;20001;-82
2023/05/31 05:42:56;;;;;;;19.85;10.73;;;;;;;;;;6231720;23;20015;-81
2023/05/31 05:45:22;;;;;;;20.10;10.47;;;;;;;;;;6226844;23;20012;-79
2023/05/31 05:47:49;;;;;;;21.50;10.07;;;;;;;;;;6227456;23;20000;-82
2023/05/31 05:50:35;;;;;;;22.63;10.57;;;;;;;;;;6230862;23;20061;-83
2023/05/31 05:53:01;;;;;;;18.55;10.10;;;;;;;;;;6226320;23;20424;-83
2023/05/31 05:55:26;;;;;;;19.92;10.68;;;;;;;;;;6222590;23;20064;-82
2023/05/31 05:57:53;;;;;;;19.52;10.25;;;;;;;;;;6219174;23;20004;-79
2023/05/31 06:00:21;;;;;;;20.52;9.88;;;;;;;;;;6215874;23;20040;-80
2023/05/31 06:02:49;;;;;;;19.17;10.63;;;;;;;;;;6196234;23;20009;-81
2023/05/31 06:05:17;;;;;;;18.10;10.47;;;;;;;;;;6197727;23;20062;-82
2023/05/31 06:07:54;;;;;;;18.42;9.70;;;;;;;;;;6221540;23;20083;-80
2023/05/31 06:10:19;;;;;;;17.67;9.75;;;;;;;;;;6221067;23;20028;-80
2023/05/31 06:12:45;;;;;;;14.48;9.82;;;;;;;;;;6224053;23;20024;-81
2023/05/31 06:15:10;;;;;;;16.88;8.50;;;;;;;;;;6225794;23;20062;-81
2023/05/31 06:17:35;;;;;;;14.10;9.27;;;;;;;;;;6223654;23;20004;-80
2023/05/31 06:20:03;;;;;;;21.25;10.20;;;;;;;;;;6220679;23;20016;-80
2023/05/31 06:22:28;;;;;;;15.05;9.98;;;;;;;;;;6220761;23;20072;-82
2023/05/31 06:24:57;;;;;;;14.43;9.38;;;;;;;;;;6221864;23;20005;-81
2023/05/31 06:27:23;;;;;;;13.95;9.23;;;;;;;;;;6222813;23;20001;-80
2023/05/31 06:29:54;;;;;;;16.90;9.30;;;;;;;;;;6222813;23;20227;-80
2023/05/31 06:32:20;;;;;;;16.60;9.18;;;;;;;;;;6221983;23;20063;-80
2023/05/31 06:34:46;;;;;;;22.70;8.80;;;;;;;;;;6221570;23;20005;-82
2023/05/31 06:37:12;;;;;;;13.68;8.88;;;;;;;;;;6225100;23;19996;-82
2023/05/31 06:39:37;;;;;;;18.45;9.30;;;;;;;;;;6221577;23;20433;-81
2023/05/31 06:42:05;;;;;;;12.93;9.75;;;;;;;;;;6170600;23;20008;-84
2023/05/31 06:44:30;;;;;;;17.10;8.95;;;;;;;;;;6200950;23;20538;-83
2023/05/31 06:46:56;;;;;;;14.82;9.20;;;;;;;;;;6198519;23;20004;-84
2023/05/31 06:49:21;;;;;;;14.20;8.93;;;;;;;;;;6225639;23;20005;-79
2023/05/31 06:51:50;;;;;;;10.82;8.43;;;;;;;;;;6218239;23;20004;-82
2023/05/31 06:54:16;;;;;;;18.75;8.63;;;;;;;;;;6221598;23;20001;-84
2023/05/31 06:56:41;;;;;;;24.60;9.88;;;;;;;;;;6193423;23;20054;-80
2023/05/31 06:59:27;;;;;;;13.10;9.32;;;;;;;;;;6219627;23;20088;-79
2023/05/31 07:01:56;;;;;;;15.32;8.95;;;;;;;;;;6219335;23;20004;-81
2023/05/31 07:04:22;;;;;;;18.73;9.18;;;;;;;;;;6218503;23;20059;-82
2023/05/31 07:06:56;;;;;;;15.18;9.35;;;;;;;;;;6221020;23;19997;-83
2023/05/31 07:09:21;;;;;;;18.10;8.63;;;;;;;;;;6221231;23;20004;-82
2023/05/31 07:11:46;;;;;;;23.15;9.23;;;;;;;;;;6219173;23;20083;-82
2023/05/31 07:14:12;;;;;;;16.48;9.27;;;;;;;;;;6218906;23;20000;-81
2023/05/31 07:17:25;;;;;;;14.82;9.23;;;;;;;;;;6218906;23;20000;-81
2023/05/31 07:19:51;;;;;;;18.88;10.18;;;;;;;;;;6096608;23;20597;-81
2023/05/31 07:22:48;;;;;;;14.68;9.55;;;;;;;;;;6073813;23;20013;-81
2023/05/31 07:25:13;;;;;;;16.42;9.82;;;;;;;;;;6173896;23;20451;-81
2023/05/31 07:27:39;;;;;;;16.55;9.45;;;;;;;;;;6223439;23;20030;-81
2023/05/31 07:30:06;;;;;;;19.27;9.70;;;;;;;;;;6221074;23;20003;-80
2023/05/31 07:32:31;;;;;;;20.08;9.95;;;;;;;;;;6194080;23;20369;-84
2023/05/31 07:34:57;;;;;;;18.65;9.70;;;;;;;;;;6192049;23;20020;-81
2023/05/31 07:37:22;;;;;;;14.38;9.60;;;;;;;;;;6219218;23;20004;-81
2023/05/31 07:39:48;;;;;;;17.17;9.73;;;;;;;;;;6219381;23;20439;-81
2023/05/31 07:42:13;;;;;;;14.18;8.93;;;;;;;;;;6191538;23;20009;-82
2023/05/31 07:44:42;;;;;;;17.15;9.50;;;;;;;;;;6219685;23;20000;-82
2023/05/31 07:47:08;;;;;;;12.35;9.00;;;;;;;;;;6218084;23;20032;-82
2023/05/31 07:49:34;;;;;;;16.17;8.77;;;;;;;;;;6220247;23;20473;-82
2023/05/31 07:52:08;;;;;;;16.98;9.73;;;;;;;;;;6215945;23;20005;-82
2023/05/31 07:54:33;;;;;;;19.42;8.88;;;;;;;;;;6216607;23;20016;-81
2023/05/31 07:56:59;;;;;;;17.50;9.48;;;;;;;;;;6220253;23;20087;-80
2023/05/31 07:59:28;;;;;;;22.00;9.80;;;;;;;;;;6221281;23;20039;-83
2023/05/31 08:01:54;;;;;;;;;;;;;;;;;;6221665;23;20032;-82
2023/05/31 08:04:20;;;;;;;18.75;9.70;;;;;;;;;;6220731;23;19915;-82
2023/05/31 08:06:45;;;;;;;17.98;8.63;;;;;;;;;;6193882;23;20012;-82
2023/05/31 08:09:11;;;;;;;25.55;11.35;;;;;;;;;;6223696;23;20052;-81
2023/05/31 08:11:37;;;;;;;15.10;9.32;;;;;;;;;;6220758;23;20009;-82
2023/05/31 08:14:07;;;;;;;18.42;9.23;;;;;;;;;;6192400;23;20071;-81
2023/05/31 08:16:33;;;;;;;12.77;8.50;;;;;;;;;;6217865;23;20082;-81
2023/05/31 08:18:58;;;;;;;12.60;8.48;;;;;;;;;;6215423;23;20032;-80
2023/05/31 08:21:29;;;;;;;14.13;8.43;;;;;;;;;;6191678;23;20057;-79
2023/05/31 08:23:55;;;;;;;16.08;8.65;;;;;;;;;;6193133;23;20036;-80
2023/05/31 08:26:21;;;;;;;13.48;8.60;;;;;;;;;;6216844;23;20009;-83
2023/05/31 08:28:48;;;;;;;17.63;8.25;;;;;;;;;;6194229;23;20008;-81
2023/05/31 08:31:14;;;;;;;10.45;8.23;;;;;;;;;;6195275;23;20067;-81
2023/05/31 08:33:51;;;;;;;13.70;8.48;;;;;;;;;;6219806;23;20005;-80
2023/05/31 08:36:18;;;;;;;16.42;8.98;;;;;;;;;;6192250;23;20062;-82
2023/05/31 08:38:48;;;;;;;15.27;8.38;;;;;;;;;;6222283;23;20565;-80
2023/05/31 08:41:18;;;;;;;12.38;8.00;;;;;;;;;;6218535;23;20032;-82
2023/05/31 08:43:46;;;;;;;11.88;7.63;;;;;;;;;;6216226;23;20407;-79
2023/05/31 08:46:32;;;;;;;11.82;7.22;;;;;;;;;;6219978;23;20027;-82
2023/05/31 08:49:24;;;;;;;10.85;6.55;;;;;;;;;;6180000;23;20087;-82
2023/05/31 08:51:50;;;;;;;9.35;7.30;;;;;;;;;;6217997;23;20008;-81
2023/05/31 08:54:16;;;;;;;10.85;7.03;;;;;;;;;;6224551;23;20011;-80
2023/05/31 08:56:45;;;;;;;11.13;7.72;;;;;;;;;;6220129;23;20031;-80
2023/05/31 08:59:18;;;;;;;13.93;7.18;;;;;;;;;;6219652;23;20019;-80
2023/05/31 09:01:43;;;;;;;9.50;6.90;;;;;;;;;;6219745;23;20016;-80
2023/05/31 09:04:09;;;;;;;11.88;7.10;;;;;;;;;;6195138;23;20039;-82
2023/05/31 09:06:34;;;;;;;12.65;7.05;;;;;;;;;;6173057;23;20009;-81
2023/05/31 09:09:00;;;;;;;9.68;6.22;;;;;;;;;;6223688;23;19997;-82
2023/05/31 09:11:26;;;;;;;10.95;6.35;;;;;;;;;;6199018;23;20012;-81
2023/05/31 09:13:53;;;;;;;12.13;6.53;;;;;;;;;;6221496;23;19997;-82
2023/05/31 09:16:19;;;;;;;8.73;6.38;;;;;;;;;;6220903;23;20551;-83
2023/05/31 09:18:45;;;;;;;11.13;6.30;;;;;;;;;;6171179;23;20440;-83
2023/05/31 09:21:19;;;;;;;9.95;6.15;;;;;;;;;;6221889;23;20011;-82
2023/05/31 09:23:55;;;;;;;8.40;6.13;;;;;;;;;;6222178;23;20001;-81
2023/05/31 09:26:21;;;;;;;11.80;6.20;;;;;;;;;;6198263;23;20036;-82
2023/05/31 09:28:50;;;;;;;9.15;6.00;;;;;;;;;;6222147;23;20008;-83
2023/05/31 09:31:17;;;;;;;10.60;5.75;;;;;;;;;;6197160;23;20032;-81
2023/05/31 09:33:44;;;;;;;10.73;6.38;;;;;;;;;;6195605;23;20009;-81
2023/05/31 09:36:11;;;;;;;11.07;5.90;;;;;;;;;;6168285;23;20455;-79
2023/05/31 09:38:37;;;;;;;8.65;6.47;;;;;;;;;;6217076;23;20061;-81
2023/05/31 09:41:17;;;;;;;8.05;6.10;;;;;;;;;;6172340;23;20012;-81
2023/05/31 09:43:46;;;;;;;9.00;5.75;;;;;;;;;;6196566;23;20103;-80
2023/05/31 09:46:19;;;;;;;8.82;5.85;;;;;;;;;;6219906;23;20091;-81
2023/05/31 09:48:45;;;;;;;7.88;5.40;;;;;;;;;;6196422;23;20005;-80
2023/05/31 09:51:16;;;;;;;7.35;5.70;;;;;;;;;;6217985;23;20420;-80
2023/05/31 09:53:43;;;;;;;8.55;5.80;;;;;;;;;;6191336;23;20005;-81
2023/05/31 09:56:17;;;;;;;7.05;5.57;;;;;;;;;;6218891;23;20099;-80
2023/05/31 09:58:43;;;;;;;9.65;5.93;;;;;;;;;;6190130;23;20024;-81
2023/05/31 10:01:09;;;;;;;6.90;5.10;;;;;;;;;;6215979;23;20005;-79
2023/05/31 10:03:34;;;;;;;8.68;5.25;;;;;;;;;;6214983;23;20031;-80
2023/05/31 10:06:00;;;;;;;6.55;4.97;;;;;;;;;;6213205;23;20104;-79
2023/05/31 10:08:26;;;;;;;6.82;5.10;;;;;;;;;;6218631;23;20000;-81
2023/05/31 10:10:54;;;;;;;11.80;5.30;;;;;;;;;;6219181;23;20013;-81
2023/05/31 10:13:19;;;;;;;10.63;5.53;;;;;;;;;;6190555;23;20420;-80
2023/05/31 10:15:46;;;;;;;8.40;5.57;;;;;;;;;;6214116;23;20005;-80
2023/05/31 10:18:16;;;;;;;6.20;5.15;;;;;;;;;;6189284;23;19996;-80
2023/05/31 10:21:24;;;;;;;6.20;5.13;;;;;;;;;;6190623;23;20008;-82
2023/05/31 10:24:04;;;;;;;7.70;5.15;;;;;;;;;;6048975;23;20427;-80
2023/05/31 10:26:46;;;;;;;5.75;4.82;;;;;;;;;;6048438;23;20022;-81
2023/05/31 10:29:21;;;;;;;7.07;5.25;;;;;;;;;;6149501;23;20063;-80
2023/05/31 10:31:49;;;;;;;13.63;5.65;;;;;;;;;;6217734;23;20063;-80
2023/05/31 10:34:22;;;;;;;8.70;5.60;;;;;;;;;;6218287;23;20023;-78
2023/05/31 10:36:51;;;;;;;7.00;5.55;;;;;;;;;;6190513;23;20444;-82
2023/05/31 10:39:36;;;;;;;11.23;5.75;;;;;;;;;;6193276;23;20004;-81
2023/05/31 10:42:08;;;;;;;6.88;5.25;;;;;;;;;;6219029;23;20498;-82
2023/05/31 10:44:45;;;;;;;9.07;5.32;;;;;;;;;;6191351;23;20000;-81
2023/05/31 10:47:12;;;;;;;8.57;5.78;;;;;;;;;;6191446;23;20005;-81
2023/05/31 10:49:38;;;;;;;9.35;5.72;;;;;;;;;;6192417;23;20004;-83
2023/05/31 10:52:04;;;;;;;7.35;5.72;;;;;;;;;;6193447;23;20095;-83
2023/05/31 10:54:30;;;;;;;9.48;5.60;;;;;;;;;;6196828;23;19996;-81
2023/05/31 10:56:57;;;;;;;10.70;5.25;;;;;;;;;;6099405;23;1635849;-82
2023/05/31 10:59:23;;;;;;;6.50;5.22;;;;;;;;;;6220387;23;20001;-81
2023/05/31 11:01:50;;;;;;;10.73;5.70;;;;;;;;;;6219960;23;20008;-82
2023/05/31 11:04:20;;;;;;;8.20;5.65;;;;;;;;;;6194188;23;20009;-82
2023/05/31 11:06:46;;;;;;;8.00;5.57;;;;;;;;;;6218457;23;20008;-83
2023/05/31 11:09:12;;;;;;;6.50;5.53;;;;;;;;;;6217358;23;20004;-79
2023/05/31 11:11:41;;;;;;;10.05;5.80;;;;;;;;;;6165619;23;20064;-82
2023/05/31 11:14:16;;;;;;;13.30;6.00;;;;;;;;;;6218053;23;20092;-81
2023/05/31 11:16:46;;;;;;;8.77;6.00;;;;;;;;;;6197783;23;20054;-84
2023/05/31 11:19:17;;;;;;;10.32;5.57;;;;;;;;;;6219174;23;20031;-84
2023/05/31 11:21:49;;;;;;;13.00;5.90;;;;;;;;;;6218227;23;20111;-82
2023/05/31 11:24:44;;;;;;;10.45;5.82;;;;;;;;;;6220323;23;20011;-82
2023/05/31 11:27:13;;;;;;;6.80;5.55;;;;;;;;;;6186891;23;20106;-81
2023/05/31 11:29:54;;;;;;;13.35;6.40;;;;;;;;;;6196152;23;20055;-81
2023/05/31 11:32:20;;;;;;;9.50;6.10;;;;;;;;;;6216481;23;20004;-80
2023/05/31 11:35:00;;;;;;;10.48;6.25;;;;;;;;;;6217164;23;20005;-81
2023/05/31 11:37:29;;;;;;;7.82;5.60;;;;;;;;;;6218976;23;20088;-82
2023/05/31 11:39:55;;;;;;;11.02;6.00;;;;;;;;;;6167276;23;20000;-80
2023/05/31 11:42:21;;;;;;;16.88;9.05;;;;;;;;;;6217835;23;20459;-82
2023/05/31 11:44:47;;;;;;;12.05;6.50;;;;;;;;;;6193322;23;20000;-81
2023/05/31 11:47:28;;;;;;;12.95;6.40;;;;;;;;;;6216881;23;20487;-82
2023/05/31 11:49:56;;;;;;;10.85;6.53;;;;;;;;;;6192713;23;20344;-81
2023/05/31 11:52:21;;;;;;;8.15;5.90;;;;;;;;;;6167751;23;20047;-82
2023/05/31 11:54:48;;;;;;;10.15;6.18;;;;;;;;;;6221521;23;20000;-81
2023/05/31 11:57:14;;;;;;;11.27;6.22;;;;;;;;;;6194422;23;20013;-82
2023/05/31 11:59:40;;;;;;;8.15;6.22;;;;;;;;;;6217213;23;20391;-82
2023/05/31 12:02:06;;;;;;;9.93;6.13;;;;;;;;;;6192344;23;20008;-82
2023/05/31 12:04:39;;;;;;;11.85;6.07;;;;;;;;;;6192659;23;20253;-81
2023/05/31 12:07:17;;;;;;;8.93;5.70;;;;;;;;;;6192782;23;20044;-82
2023/05/31 12:09:42;;;;;;;9.93;6.50;;;;;;;;;;6170010;23;20000;-81
2023/05/31 12:12:08;;;;;;;11.20;6.10;;;;;;;;;;6194792;23;20403;-82
2023/05/31 12:14:34;;;;;;;8.65;6.38;;;;;;;;;;6222514;23;20000;-82
2023/05/31 12:17:03;;;;;;;9.38;5.93;;;;;;;;;;6221865;23;20011;-82
2023/05/31 12:19:29;;;;;;;11.25;6.13;;;;;;;;;;6219542;23;20008;-81
2023/05/31 12:21:54;;;;;;;16.50;6.20;;;;;;;;;;6195562;23;20080;-82
2023/05/31 12:24:20;;;;;;;13.70;6.50;;;;;;;;;;6219738;23;20004;-80
2023/05/31 12:26:48;;;;;;;8.15;5.82;;;;;;;;;;6194909;23;20087;-81
2023/05/31 12:29:14;;;;;;;11.48;6.13;;;;;;;;;;6192292;23;20069;-81
2023/05/31 12:31:41;;;;;;;12.32;6.20;;;;;;;;;;6195560;23;20011;-82
2023/05/31 12:34:13;;;;;;;13.15;6.65;;;;;;;;;;6194835;23;20000;-83
2023/05/31 12:36:48;;;;;;;17.60;10.32;;;;;;;;;;6219451;23;20005;-83
2023/05/31 12:39:21;;;;;;;10.20;6.30;;;;;;;;;;6222130;23;20005;-84
2023/05/31 12:41:47;;;;;;;13.25;6.38;;;;;;;;;;6222157;23;20062;-83
2023/05/31 12:44:16;;;;;;;11.55;6.30;;;;;;;;;;6222064;23;20000;-82
2023/05/31 12:46:42;;;;;;;9.05;6.00;;;;;;;;;;6221867;23;20027;-82
2023/05/31 12:49:13;;;;;;;11.02;6.50;;;;;;;;;;6196157;23;20020;-81
2023/05/31 12:51:38;;;;;;;10.05;6.60;;;;;;;;;;6213883;23;20009;-82
2023/05/31 12:54:11;;;;;;;10.27;6.00;;;;;;;;;;6213306;23;20000;-80
2023/05/31 12:56:37;;;;;;;11.93;6.75;;;;;;;;;;6214040;23;20009;-81
2023/05/31 12:59:02;;;;;;;15.55;9.65;;;;;;;;;;6189153;23;20024;-83
2023/05/31 13:01:28;;;;;;;12.88;6.70;;;;;;;;;;6214078;23;20095;-83
2023/05/31 13:03:53;;;;;;;10.07;6.45;;;;;;;;;;6213682;23;20009;-83
2023/05/31 13:06:19;;;;;;;9.55;6.57;;;;;;;;;;6189271;23;20087;-83
2023/05/31 13:08:44;;;;;;;12.10;6.63;;;;;;;;;;6188478;23;20004;-83
2023/05/31 13:11:10;;;;;;;11.10;6.40;;;;;;;;;;6215165;23;20482;-83
2023/05/31 13:13:35;;;;;;;12.75;6.72;;;;;;;;;;6215055;23;20012;-83
2023/05/31 13:16:01;;;;;;;12.35;6.40;;;;;;;;;;6163954;23;20412;-83
2023/05/31 13:18:27;;;;;;;12.30;4.57;;;;;;;;;;6213754;23;20005;-81
2023/05/31 13:20:52;;;;;;;8.38;3.90;;;;;;;;;;6213728;23;20039;-82
2023/05/31 13:23:18;;;;;;;5.22;3.45;;;;;;;;;;6215444;23;20004;-81
2023/05/31 13:25:43;;;;;;;5.13;3.28;;;;;;;;;;6213723;23;20008;-82
2023/05/31 13:28:08;;;;;;;7.18;3.20;;;;;;;;;;6214053;23;20056;-82
2023/05/31 13:30:34;;;;;;;8.60;3.05;;;;;;;;;;6189029;23;20005;-79
2023/05/31 13:32:59;;;;;;;8.73;3.10;;;;;;;;;;6213654;23;20004;-79
2023/05/31 13:35:25;;;;;;;6.93;2.80;;;;;;;;;;6213927;23;20075;-78
2023/05/31 13:37:50;;;;;;;4.82;3.08;;;;;;;;;;6212841;23;20614;-79
2023/05/31 13:40:15;;;;;;;6.28;3.35;;;;;;;;;;6188495;23;20435;-78
2023/05/31 13:42:41;;;;;;;9.95;3.30;;;;;;;;;;6188610;23;20047;-80
2023/05/31 13:45:07;;;;;;;6.65;3.10;;;;;;;;;;6214246;23;20059;-79
2023/05/31 13:47:32;;;;;;;10.20;3.53;;;;;;;;;;6213450;23;20346;-79
2023/05/31 13:49:59;;;;;;;6.07;3.78;;;;;;;;;;6215095;23;20116;-78
2023/05/31 13:52:24;;;;;;;6.47;3.60;;;;;;;;;;6164199;23;20012;-78
2023/05/31 13:54:50;;;;;;;6.50;3.50;;;;;;;;;;6214377;23;20310;-78
2023/05/31 13:57:15;;;;;;;18.70;4.13;;;;;;;;;;6213481;23;20012;-78
2023/05/31 13:59:41;;;;;;;8.80;4.50;;;;;;;;;;6213345;23;20067;-78
2023/05/31 14:02:06;;;;;;;7.80;4.30;;;;;;;;;;6213348;23;20005;-79
2023/05/31 14:04:31;;;;;;;8.88;4.40;;;;;;;;;;6188153;23;20031;-76
2023/05/31 14:06:57;;;;;;;15.43;5.50;;;;;;;;;;6212594;23;20001;-78
2023/05/31 14:09:22;;;;;;;10.10;5.13;;;;;;;;;;6213028;23;20005;-78
2023/05/31 14:11:48;;;;;;;8.15;4.43;;;;;;;;;;6187685;23;20032;-79
2023/05/31 14:14:13;;;;;;;7.82;4.50;;;;;;;;;;6188135;23;20009;-77
2023/05/31 14:16:39;;;;;;;7.45;4.40;;;;;;;;;;6213183;23;20024;-78
2023/05/31 14:19:04;;;;;;;11.50;4.93;;;;;;;;;;6187915;23;20000;-79
2023/05/31 14:21:31;;;;;;;10.80;5.00;;;;;;;;;;6187298;23;20448;-78
2023/05/31 14:23:57;;;;;;;8.07;5.28;;;;;;;;;;6188914;23;20063;-78
2023/05/31 14:26:22;;;;;;;9.65;5.10;;;;;;;;;;6212828;23;20436;-79
2023/05/31 14:28:48;;;;;;;8.27;4.38;;;;;;;;;;6212834;23;20001;-78
2023/05/31 14:31:13;;;;;;;7.57;4.40;;;;;;;;;;6211846;23;20344;-78